Time;durP1;ratioP1;P1;durP2;ratioP2;P2;SDS_P1;SDS_P2;PMS_P1;PMS_P2;Temp;Humidity;BMP_temperature;BMP_pressure;BME280_temperature;BME280_humidity;BME280_pressure;Samples;Min_cycle;Max_cycle;Signal;HPM_P1;HPM_P2
2023/10/22 04:00:54;;;;;;;6.15;3.80;;;7.90;99.90;;;;;;5705184;23;20730;-72
2023/10/22 04:03:21;;;;;;;3.85;3.65;;;7.90;99.90;;;;;;4953399;28;20217;-70
2023/10/22 04:05:55;;;;;;;6.43;3.95;;;7.90;99.90;;;;;;4953696;28;20570;-69
2023/10/22 04:08:22;;;;;;;4.85;3.53;;;7.90;99.90;;;;;;4954091;28;20232;-69
2023/10/22 04:10:49;;;;;;;3.70;3.40;;;7.90;99.90;;;;;;4953966;28;20236;-69
2023/10/22 04:13:16;;;;;;;4.05;3.65;;;7.90;99.90;;;;;;4953820;28;20216;-71
2023/10/22 04:15:42;;;;;;;4.18;3.78;;;7.90;99.90;;;;;;4953995;28;20209;-70
2023/10/22 04:18:10;;;;;;;4.65;3.67;;;7.90;99.90;;;;;;4953722;28;20216;-70
2023/10/22 04:20:37;;;;;;;4.05;3.72;;;7.80;99.90;;;;;;4953726;28;20233;-70
2023/10/22 04:23:04;;;;;;;5.30;3.03;;;7.90;99.90;;;;;;4953782;28;20213;-70
2023/10/22 04:25:36;;;;;;;4.80;4.40;;;7.90;99.90;;;;;;4953748;28;20236;-70
2023/10/22 04:28:04;;;;;;;4.80;3.20;;;7.80;99.90;;;;;;4953671;28;20625;-70
2023/10/22 04:30:31;;;;;;;7.90;2.78;;;7.90;99.90;;;;;;4953586;28;20279;-70
2023/10/22 04:32:58;;;;;;;6.85;3.20;;;7.90;99.90;;;;;;4953592;28;20613;-70
2023/10/22 04:35:26;;;;;;;3.67;3.47;;;7.90;99.90;;;;;;4953586;28;20224;-70
2023/10/22 04:37:54;;;;;;;2.90;2.70;;;7.90;99.90;;;;;;4956303;28;20217;-70
2023/10/22 04:40:21;;;;;;;12.98;2.83;;;8.00;99.90;;;;;;4957519;28;20224;-70
2023/10/22 04:42:47;;;;;;;4.55;2.80;;;8.00;99.90;;;;;;4957562;28;20217;-70
2023/10/22 04:45:14;;;;;;;6.40;3.75;;;8.00;99.90;;;;;;4957489;28;20209;-70
2023/10/22 04:47:41;;;;;;;3.45;3.10;;;7.90;99.90;;;;;;4957103;28;20244;-70
2023/10/22 04:50:08;;;;;;;2.42;2.30;;;8.00;99.90;;;;;;4957647;28;20209;-70
2023/10/22 04:52:36;;;;;;;3.08;2.88;;;7.90;99.90;;;;;;4957644;28;20209;-71
2023/10/22 04:55:03;;;;;;;7.13;3.15;;;7.90;99.90;;;;;;4957417;28;20589;-71
2023/10/22 04:57:30;;;;;;;4.18;2.70;;;7.90;99.90;;;;;;4957056;28;20213;-71
2023/10/22 04:59:57;;;;;;;6.25;2.80;;;7.90;99.90;;;;;;4957236;28;20239;-70
2023/10/22 05:02:24;;;;;;;2.67;2.58;;;8.00;99.90;;;;;;4957039;28;20241;-70
2023/10/22 05:04:52;;;;;;;3.13;2.92;;;8.00;99.90;;;;;;4957322;28;20213;-70
2023/10/22 05:07:19;;;;;;;3.25;3.05;;;8.00;99.90;;;;;;4956974;28;20217;-70
2023/10/22 05:09:47;;;;;;;3.83;3.03;;;8.00;99.90;;;;;;4957046;28;20215;-70
2023/10/22 05:12:14;;;;;;;4.28;3.30;;;8.00;99.90;;;;;;4957052;28;20233;-69
2023/10/22 05:14:40;;;;;;;2.90;2.72;;;8.00;99.90;;;;;;4956936;28;20559;-69
2023/10/22 05:17:07;;;;;;;2.65;2.45;;;8.00;99.90;;;;;;4957126;28;20220;-69
2023/10/22 05:19:34;;;;;;;3.05;2.80;;;8.00;99.90;;;;;;4956821;28;20220;-69
2023/10/22 05:22:01;;;;;;;2.60;2.50;;;8.00;99.90;;;;;;4956808;28;20260;-69
2023/10/22 05:24:28;;;;;;;2.67;2.50;;;7.90;99.90;;;;;;4956928;28;20209;-69
2023/10/22 05:26:56;;;;;;;5.20;2.85;;;7.90;99.90;;;;;;4957070;28;20267;-69
2023/10/22 05:29:23;;;;;;;2.78;2.58;;;7.90;99.90;;;;;;4956888;28;20316;-70
2023/10/22 05:31:50;;;;;;;3.22;2.92;;;7.90;99.90;;;;;;4956591;28;20264;-69
2023/10/22 05:34:17;;;;;;;3.00;2.75;;;7.90;99.90;;;;;;4956804;28;20300;-70
2023/10/22 05:36:43;;;;;;;4.25;3.90;;;7.90;99.90;;;;;;4956495;28;20593;-70
2023/10/22 05:39:10;;;;;;;2.53;2.42;;;8.00;99.90;;;;;;4956666;28;20213;-70
2023/10/22 05:41:37;;;;;;;5.05;2.65;;;7.90;99.90;;;;;;4956425;28;20233;-70
2023/10/22 05:44:05;;;;;;;3.75;2.88;;;8.00;99.90;;;;;;4956685;28;20588;-70
2023/10/22 05:46:33;;;;;;;2.83;2.33;;;8.00;99.90;;;;;;4956388;28;20225;-70
2023/10/22 05:49:00;;;;;;;6.35;3.22;;;7.90;99.90;;;;;;4955883;28;20612;-71
2023/10/22 05:51:26;;;;;;;3.83;3.00;;;8.00;99.90;;;;;;4956357;28;20233;-71
2023/10/22 05:53:53;;;;;;;3.58;3.28;;;8.00;99.90;;;;;;4956308;28;20217;-70
2023/10/22 05:56:23;;;;;;;3.58;3.28;;;8.00;99.90;;;;;;4955944;28;20221;-71
2023/10/22 05:58:50;;;;;;;4.00;3.13;;;8.00;99.90;;;;;;4956333;28;20675;-70
2023/10/22 06:01:18;;;;;;;2.70;2.55;;;8.00;99.90;;;;;;4956160;28;20248;-70
2023/10/22 06:03:44;;;;;;;6.85;2.92;;;8.00;99.90;;;;;;4956314;28;20209;-70
2023/10/22 06:06:11;;;;;;;3.30;3.20;;;8.00;99.90;;;;;;4956188;28;20225;-70
2023/10/22 06:08:38;;;;;;;4.55;2.85;;;8.10;99.90;;;;;;4956106;28;20260;-69
2023/10/22 06:11:05;;;;;;;5.30;2.95;;;8.10;99.90;;;;;;4955933;28;20734;-70
2023/10/22 06:13:32;;;;;;;3.22;2.97;;;8.10;99.90;;;;;;4956071;28;20500;-70
2023/10/22 06:15:59;;;;;;;6.68;2.97;;;8.10;99.90;;;;;;4955765;28;20626;-71
2023/10/22 06:18:27;;;;;;;4.72;3.25;;;8.10;99.90;;;;;;4955841;28;20210;-70
2023/10/22 06:20:54;;;;;;;3.28;2.67;;;8.10;99.90;;;;;;4956207;28;20237;-71
2023/10/22 06:23:21;;;;;;;3.42;2.30;;;8.10;99.90;;;;;;4955967;28;20216;-71
2023/10/22 06:25:48;;;;;;;2.00;1.90;;;8.10;99.90;;;;;;4955913;28;20636;-71
2023/10/22 06:28:15;;;;;;;3.65;3.25;;;8.10;99.90;;;;;;4955855;28;20240;-69
2023/10/22 06:30:42;;;;;;;2.58;2.40;;;8.20;99.90;;;;;;4955921;28;20233;-69
2023/10/22 06:33:09;;;;;;;3.47;3.33;;;8.20;99.90;;;;;;4955810;28;20595;-69
2023/10/22 06:35:37;;;;;;;3.40;3.15;;;8.20;99.90;;;;;;4955531;28;20617;-68
2023/10/22 06:38:04;;;;;;;3.60;3.08;;;8.30;99.90;;;;;;4955504;28;20308;-68
2023/10/22 06:40:30;;;;;;;3.88;3.50;;;8.30;99.90;;;;;;4956438;28;20241;-69
2023/10/22 06:42:57;;;;;;;4.55;3.08;;;8.30;99.90;;;;;;4957650;28;20216;-69
2023/10/22 06:45:24;;;;;;;3.92;3.53;;;8.30;99.90;;;;;;4956969;28;20411;-69
2023/10/22 06:47:51;;;;;;;3.85;3.47;;;8.40;99.90;;;;;;4955948;28;20213;-69
2023/10/22 06:50:17;;;;;;;5.22;3.35;;;8.40;99.90;;;;;;4955759;28;20292;-69
2023/10/22 06:52:46;;;;;;;3.03;2.88;;;8.40;99.90;;;;;;4955507;28;20224;-69
2023/10/22 06:55:12;;;;;;;4.80;3.20;;;8.40;99.90;;;;;;4955288;28;20220;-69
2023/10/22 06:57:39;;;;;;;5.07;3.55;;;8.50;99.90;;;;;;4955517;28;20224;-69
2023/10/22 07:00:09;;;;;;;4.43;3.20;;;8.50;99.90;;;;;;4954416;28;20205;-69
2023/10/22 07:02:36;;;;;;;3.03;2.90;;;8.60;99.90;;;;;;4955196;28;20305;-69
2023/10/22 07:05:04;;;;;;;3.42;2.70;;;8.60;99.90;;;;;;4954903;28;20220;-70
2023/10/22 07:07:31;;;;;;;2.50;2.30;;;8.60;99.90;;;;;;4955016;28;20217;-69
2023/10/22 07:09:59;;;;;;;2.95;2.85;;;8.70;99.90;;;;;;4954821;28;20236;-70
2023/10/22 07:12:27;;;;;;;4.43;2.58;;;8.70;99.90;;;;;;4955146;28;20260;-69
2023/10/22 07:14:55;;;;;;;6.32;2.75;;;8.70;99.90;;;;;;4954980;28;20213;-70
2023/10/22 07:17:22;;;;;;;3.80;2.88;;;8.80;99.90;;;;;;4954620;28;20236;-69
2023/10/22 07:19:49;;;;;;;3.30;3.00;;;8.90;99.90;;;;;;4955121;28;20217;-69
2023/10/22 07:22:15;;;;;;;2.92;2.72;;;8.90;99.90;;;;;;4954760;28;20608;-69
2023/10/22 07:24:42;;;;;;;2.10;2.00;;;8.90;99.90;;;;;;4954557;28;20686;-70
2023/10/22 07:27:10;;;;;;;2.88;2.67;;;8.90;99.90;;;;;;4954575;28;20297;-70
2023/10/22 07:29:37;;;;;;;2.40;2.30;;;8.90;99.90;;;;;;4954658;28;20233;-70
2023/10/22 07:32:04;;;;;;;2.20;2.10;;;9.00;99.90;;;;;;4954372;28;20237;-68
2023/10/22 07:34:31;;;;;;;5.82;2.83;;;9.10;99.90;;;;;;4954463;28;20227;-67
2023/10/22 07:36:57;;;;;;;3.42;2.75;;;9.20;99.90;;;;;;4954316;28;20219;-68
2023/10/22 07:39:24;;;;;;;8.40;3.13;;;9.20;99.90;;;;;;4954375;28;20593;-67
2023/10/22 07:41:51;;;;;;;2.50;2.40;;;9.30;99.90;;;;;;4954226;28;20233;-68
2023/10/22 07:44:19;;;;;;;6.57;2.65;;;9.30;99.90;;;;;;4954274;28;20218;-69
2023/10/22 07:46:46;;;;;;;3.42;2.70;;;9.30;99.90;;;;;;4953985;28;20217;-70
2023/10/22 07:49:13;;;;;;;3.20;2.42;;;9.30;99.90;;;;;;4954195;28;20724;-70
2023/10/22 07:51:40;;;;;;;2.65;2.25;;;9.30;99.90;;;;;;4954065;28;20232;-70
2023/10/22 07:54:07;;;;;;;3.63;2.60;;;9.40;99.90;;;;;;4954357;28;20217;-70
2023/10/22 07:56:34;;;;;;;1.77;1.77;;;9.40;99.90;;;;;;4953803;28;20216;-70
2023/10/22 07:59:01;;;;;;;2.70;2.50;;;9.40;99.90;;;;;;4953977;28;20267;-69
2023/10/22 08:01:29;;;;;;;1.98;1.98;;;9.50;99.90;;;;;;4953937;28;20255;-70
2023/10/22 08:03:56;;;;;;;1.92;1.92;;;9.50;99.90;;;;;;4954098;28;20217;-70
2023/10/22 08:06:23;;;;;;;4.05;1.90;;;9.50;99.90;;;;;;4953854;28;20316;-69
2023/10/22 08:08:54;;;;;;;2.00;1.85;;;9.60;99.90;;;;;;4953899;28;20233;-69
2023/10/22 08:11:21;;;;;;;5.63;2.28;;;9.60;99.90;;;;;;4953697;28;20715;-70
2023/10/22 08:13:48;;;;;;;2.83;2.53;;;9.70;99.90;;;;;;4953975;28;20216;-70
2023/10/22 08:16:15;;;;;;;5.68;2.45;;;9.80;99.90;;;;;;4953695;28;20221;-68
2023/10/22 08:18:43;;;;;;;2.15;1.80;;;9.80;99.90;;;;;;4953887;28;20413;-69
2023/10/22 08:21:10;;;;;;;2.47;2.38;;;9.80;99.90;;;;;;4953673;28;20292;-70
2023/10/22 08:23:38;;;;;;;2.70;2.08;;;9.90;99.90;;;;;;4953558;28;20295;-69
2023/10/22 08:26:05;;;;;;;1.83;1.83;;;9.90;99.90;;;;;;4953824;28;20219;-68
2023/10/22 08:28:32;;;;;;;4.75;2.20;;;10.00;99.90;;;;;;4953588;28;20221;-69
2023/10/22 08:31:00;;;;;;;2.35;2.20;;;10.10;99.90;;;;;;4953568;28;20753;-69
2023/10/22 08:33:27;;;;;;;4.13;2.65;;;10.20;99.90;;;;;;4953676;28;20221;-71
2023/10/22 08:35:55;;;;;;;4.30;1.98;;;10.20;99.90;;;;;;4953584;28;20300;-72
2023/10/22 08:38:22;;;;;;;2.42;2.22;;;10.20;99.90;;;;;;4953443;28;20225;-70
2023/10/22 08:40:52;;;;;;;2.63;2.42;;;10.30;99.90;;;;;;4953268;28;20239;-70
2023/10/22 08:43:19;;;;;;;2.08;1.98;;;10.40;99.90;;;;;;4953921;28;20236;-71
2023/10/22 08:45:48;;;;;;;2.25;2.08;;;10.50;99.90;;;;;;4953518;28;20688;-69
2023/10/22 08:48:17;;;;;;;3.05;2.20;;;10.50;99.90;;;;;;4953902;28;20213;-69
2023/10/22 08:50:46;;;;;;;5.65;2.40;;;10.60;99.90;;;;;;4953374;28;20239;-70
2023/10/22 08:53:15;;;;;;;3.97;2.28;;;10.70;99.90;;;;;;4953374;28;20217;-70
2023/10/22 08:55:45;;;;;;;2.55;2.40;;;10.80;99.90;;;;;;4953376;28;20241;-70
2023/10/22 08:58:14;;;;;;;2.40;2.30;;;10.90;99.90;;;;;;4953831;28;20216;-70
2023/10/22 09:00:45;;;;;;;2.20;2.10;;;11.00;99.90;;;;;;4953743;28;20603;-71
2023/10/22 09:03:12;;;;;;;3.38;2.95;;;11.00;99.90;;;;;;4953570;28;20217;-69
2023/10/22 09:05:39;;;;;;;3.58;2.05;;;11.20;99.90;;;;;;4938250;29;20214;-70
2023/10/22 09:08:06;;;;;;;2.70;2.55;;;11.40;99.90;;;;;;4953334;28;20225;-70
2023/10/22 09:10:36;;;;;;;3.50;2.45;;;11.50;99.90;;;;;;4953563;28;20246;-70
2023/10/22 09:13:15;;;;;;;2.27;1.90;;;11.60;99.90;;;;;;4953777;28;20269;-70
2023/10/22 09:15:43;;;;;;;3.70;2.90;;;11.70;99.90;;;;;;4953673;28;20513;-70
2023/10/22 09:18:11;;;;;;;2.73;2.10;;;11.80;99.90;;;;;;4953380;28;20468;-70
2023/10/22 09:20:39;;;;;;;3.30;3.00;;;11.90;99.90;;;;;;4953705;28;20487;-70
2023/10/22 09:23:17;;;;;;;1.73;1.63;;;12.00;99.90;;;;;;4955104;28;20471;-69
2023/10/22 09:25:47;;;;;;;2.00;1.90;;;12.10;99.90;;;;;;4957383;28;20461;-70
2023/10/22 09:28:15;;;;;;;2.50;2.23;;;12.10;99.90;;;;;;4956631;28;20462;-70
2023/10/22 09:30:42;;;;;;;3.93;2.50;;;12.30;99.90;;;;;;4956194;28;20501;-70
2023/10/22 09:33:09;;;;;;;2.23;2.13;;;12.40;99.90;;;;;;4956679;28;20504;-69
2023/10/22 09:35:37;;;;;;;2.57;2.33;;;12.50;99.90;;;;;;4956844;28;20471;-70
2023/10/22 09:38:04;;;;;;;1.90;1.80;;;12.60;99.90;;;;;;4956944;28;20475;-70
2023/10/22 09:40:33;;;;;;;2.50;2.40;;;12.70;99.90;;;;;;4956547;28;20495;-68
2023/10/22 09:43:04;;;;;;;2.40;1.90;;;12.70;99.90;;;;;;4956464;28;20471;-69
2023/10/22 09:45:31;;;;;;;1.67;1.67;;;12.70;99.90;;;;;;4956083;28;20827;-70
2023/10/22 09:48:06;;;;;;;4.70;3.43;;;12.80;99.90;;;;;;4956294;28;20471;-69
2023/10/22 09:50:36;;;;;;;2.47;2.40;;;13.00;99.90;;;;;;4955954;28;20499;-69
2023/10/22 09:53:07;;;;;;;3.17;2.97;;;13.10;99.90;;;;;;4956392;28;20475;-69
2023/10/22 09:55:37;;;;;;;1.97;1.87;;;13.30;99.90;;;;;;4956228;28;20482;-69
2023/10/22 09:58:06;;;;;;;5.10;2.50;;;13.40;99.90;;;;;;4955854;28;20491;-69
2023/10/22 10:00:35;;;;;;;2.20;1.70;;;13.50;99.90;;;;;;4955765;28;20488;-69
2023/10/22 10:03:04;;;;;;;2.77;2.00;;;13.60;99.90;;;;;;4956276;28;20536;-68
2023/10/22 10:05:33;;;;;;;6.33;2.47;;;13.60;99.90;;;;;;4956236;28;20469;-69
2023/10/22 10:08:00;;;;;;;2.83;1.40;;;13.50;99.90;;;;;;4955958;28;20465;-70
2023/10/22 10:10:28;;;;;;;1.87;1.77;;;13.50;99.90;;;;;;4955437;28;20495;-69
2023/10/22 10:12:55;;;;;;;2.50;2.43;;;13.50;99.90;;;;;;4955733;28;20464;-69
2023/10/22 10:15:33;;;;;;;3.13;2.00;;;13.40;99.90;;;;;;4955783;28;20480;-72
2023/10/22 10:18:01;;;;;;;1.43;1.43;;;13.40;99.90;;;;;;4955170;28;20478;-73
2023/10/22 10:20:31;;;;;;;1.43;1.43;;;13.40;99.90;;;;;;4955076;28;20501;-72
2023/10/22 10:23:06;;;;;;;1.50;1.40;;;13.30;99.90;;;;;;4955300;28;20554;-72
2023/10/22 10:25:34;;;;;;;1.30;1.30;;;13.20;99.90;;;;;;4955139;28;20471;-71
2023/10/22 10:28:03;;;;;;;1.30;1.30;;;13.10;99.90;;;;;;4955223;28;20479;-72
2023/10/22 10:30:31;;;;;;;1.20;1.20;;;13.10;99.90;;;;;;4952462;29;20503;-73
2023/10/22 10:32:58;;;;;;;1.70;1.37;;;13.00;99.90;;;;;;4950048;29;20472;-71
2023/10/22 10:35:27;;;;;;;1.73;1.63;;;13.00;99.90;;;;;;4953593;28;20822;-72
2023/10/22 10:38:25;;;;;;;1.00;0.90;;;12.90;99.90;;;;;;4946800;29;20524;-72
2023/10/22 10:40:53;;;;;;;0.80;0.80;;;12.90;99.90;;;;;;4937908;29;20908;-72
2023/10/22 10:43:21;;;;;;;3.23;1.10;;;12.80;99.90;;;;;;4944528;29;20531;-71
2023/10/22 10:46:26;;;;;;;1.17;1.00;;;12.80;99.90;;;;;;4946686;29;20466;-71
2023/10/22 10:48:53;;;;;;;1.10;1.10;;;12.80;99.90;;;;;;4938008;29;20524;-72
2023/10/22 10:51:21;;;;;;;0.90;0.90;;;12.80;99.90;;;;;;4944335;29;21091;-72
2023/10/22 10:54:17;;;;;;;1.90;1.23;;;12.70;99.90;;;;;;4946787;29;20515;-72
2023/10/22 10:56:55;;;;;;;1.17;1.17;;;12.70;99.90;;;;;;4936255;29;21026;-72
2023/10/22 10:59:33;;;;;;;2.37;1.97;;;12.60;99.90;;;;;;4944816;29;20817;-73
2023/10/22 11:02:07;;;;;;;1.00;1.00;;;12.60;99.90;;;;;;4946288;29;20501;-72
2023/10/22 11:04:35;;;;;;;1.33;1.33;;;12.60;99.90;;;;;;4943580;29;20550;-71
2023/10/22 11:07:02;;;;;;;1.90;1.57;;;12.60;99.90;;;;;;4943455;29;20817;-71
2023/10/22 11:09:29;;;;;;;2.83;1.43;;;12.60;99.90;;;;;;4945310;29;20493;-71
2023/10/22 11:11:58;;;;;;;4.17;1.40;;;12.60;99.90;;;;;;4948987;28;20571;-72
2023/10/22 11:14:24;;;;;;;1.30;1.30;;;12.60;99.90;;;;;;4944885;29;20495;-71
2023/10/22 11:16:53;;;;;;;1.40;1.30;;;12.60;99.90;;;;;;4949324;28;20475;-73
2023/10/22 11:19:23;;;;;;;1.30;1.20;;;12.70;99.90;;;;;;4950945;29;20499;-73
2023/10/22 11:21:50;;;;;;;1.60;1.60;;;12.80;99.90;;;;;;4943294;29;20571;-72
2023/10/22 11:24:18;;;;;;;1.33;1.23;;;12.90;99.90;;;;;;4943857;29;20473;-72
2023/10/22 11:26:46;;;;;;;1.37;1.27;;;13.10;99.90;;;;;;4946735;29;20938;-72
2023/10/22 11:29:14;;;;;;;1.65;1.65;;;13.20;99.90;;;;;;4946613;29;20472;-72
2023/10/22 11:31:51;;;;;;;1.87;1.77;;;13.40;99.90;;;;;;4943053;29;20525;-72
2023/10/22 11:34:18;;;;;;;1.73;1.63;;;13.50;99.90;;;;;;4943968;29;20528;-72
2023/10/22 11:36:47;;;;;;;1.30;1.30;;;13.50;99.90;;;;;;4946748;29;20571;-73
2023/10/22 11:39:18;;;;;;;1.30;1.30;;;13.60;99.90;;;;;;4945926;29;20460;-72
2023/10/22 11:41:45;;;;;;;2.27;1.73;;;13.60;99.90;;;;;;4947266;29;20519;-73
2023/10/22 11:44:33;;;;;;;1.87;1.77;;;13.60;99.90;;;;;;4946211;28;20464;-73
2023/10/22 11:47:01;;;;;;;1.40;1.40;;;13.50;99.90;;;;;;4938090;29;20485;-73
2023/10/22 11:49:28;;;;;;;1.50;1.43;;;13.50;99.90;;;;;;4944917;29;20473;-73
2023/10/22 11:51:56;;;;;;;1.47;1.43;;;13.50;99.90;;;;;;4948383;28;20478;-73
2023/10/22 11:54:42;;;;;;;2.57;1.70;;;13.50;99.90;;;;;;4943870;29;20828;-72
2023/10/22 11:57:09;;;;;;;5.27;1.70;;;13.50;99.90;;;;;;4945816;29;20471;-73
2023/10/22 11:59:36;;;;;;;1.80;1.70;;;13.60;99.90;;;;;;4945817;28;20471;-72
2023/10/22 12:02:03;;;;;;;2.10;2.00;;;13.70;99.90;;;;;;4945504;29;20896;-73
2023/10/22 12:04:29;;;;;;;2.27;1.87;;;13.70;99.90;;;;;;4951465;29;20586;-73
2023/10/22 12:06:59;;;;;;;2.03;2.03;;;13.80;99.90;;;;;;4943129;29;20473;-72
2023/10/22 12:09:27;;;;;;;1.50;1.50;;;13.90;99.90;;;;;;4944226;29;21113;-73
2023/10/22 12:11:53;;;;;;;1.83;1.80;;;13.90;99.90;;;;;;4945965;29;20489;-72
2023/10/22 12:14:20;;;;;;;1.70;1.70;;;14.10;99.90;;;;;;4944803;29;20468;-72
2023/10/22 12:16:47;;;;;;;1.27;1.27;;;14.30;99.90;;;;;;4942167;29;20466;-72
2023/10/22 12:19:13;;;;;;;1.60;1.60;;;14.40;99.90;;;;;;4950209;29;20469;-71
2023/10/22 12:21:40;;;;;;;1.37;1.30;;;14.40;99.90;;;;;;4942122;29;20827;-71
2023/10/22 12:24:09;;;;;;;1.27;1.27;;;14.30;99.90;;;;;;4942439;29;20549;-72
2023/10/22 12:26:35;;;;;;;2.77;1.50;;;14.30;99.90;;;;;;4950556;29;20496;-72
2023/10/22 12:29:02;;;;;;;1.33;1.30;;;14.10;99.90;;;;;;4948597;29;20588;-72
2023/10/22 12:31:29;;;;;;;1.50;1.50;;;14.10;99.90;;;;;;4947973;29;20505;-72
2023/10/22 12:33:56;;;;;;;2.30;1.60;;;14.10;99.90;;;;;;4946225;29;20461;-72
2023/10/22 12:36:22;;;;;;;1.47;1.47;;;14.10;99.90;;;;;;4943738;29;20461;-72
2023/10/22 12:38:49;;;;;;;2.13;2.03;;;14.10;99.90;;;;;;4941980;29;20462;-72
2023/10/22 12:41:18;;;;;;;1.70;1.60;;;14.10;99.90;;;;;;4942425;29;20478;-71
2023/10/22 12:43:44;;;;;;;2.20;2.10;;;14.20;99.90;;;;;;4949298;28;20880;-72
2023/10/22 12:46:11;;;;;;;2.10;2.00;;;14.30;99.90;;;;;;4942550;29;20471;-72
2023/10/22 12:48:38;;;;;;;1.27;1.27;;;14.40;99.90;;;;;;4938451;29;20466;-72
2023/10/22 12:51:05;;;;;;;2.03;1.60;;;14.60;99.90;;;;;;4946866;29;20505;-72
2023/10/22 12:53:31;;;;;;;3.60;1.97;;;14.70;99.90;;;;;;4947755;29;20463;-72
2023/10/22 12:55:58;;;;;;;2.30;1.37;;;14.70;99.90;;;;;;4946792;29;20648;-73
2023/10/22 12:58:27;;;;;;;2.60;1.50;;;14.60;99.90;;;;;;4948533;28;20472;-72
2023/10/22 13:00:54;;;;;;;1.40;1.40;;;14.60;99.90;;;;;;4952400;28;20505;-72
2023/10/22 13:03:20;;;;;;;1.20;1.20;;;14.60;99.90;;;;;;4947130;29;20466;-72
2023/10/22 13:05:49;;;;;;;1.30;1.30;;;14.60;99.90;;;;;;4960527;28;20473;-72
2023/10/22 13:08:15;;;;;;;1.47;1.47;;;14.60;99.90;;;;;;4948792;28;20958;-73
2023/10/22 13:10:48;;;;;;;1.37;1.37;;;14.70;99.90;;;;;;4956967;29;20523;-72
2023/10/22 13:13:14;;;;;;;1.60;1.50;;;14.70;99.90;;;;;;4949323;28;20974;-73
2023/10/22 13:15:44;;;;;;;1.37;1.20;;;14.60;99.90;;;;;;4949050;29;20464;-72
2023/10/22 13:18:11;;;;;;;1.67;1.67;;;14.60;99.90;;;;;;4949244;29;20553;-73
2023/10/22 13:20:37;;;;;;;1.30;1.20;;;14.50;99.90;;;;;;4949060;29;20845;-73
2023/10/22 13:23:05;;;;;;;1.30;1.30;;;14.50;99.90;;;;;;4948792;29;20476;-72
2023/10/22 13:25:32;;;;;;;1.57;1.40;;;14.40;99.90;;;;;;4946192;29;20803;-72
2023/10/22 13:27:58;;;;;;;1.80;1.70;;;14.30;99.90;;;;;;4951785;29;21019;-73
2023/10/22 13:30:25;;;;;;;1.07;1.07;;;14.20;99.90;;;;;;4946923;29;20485;-72
2023/10/22 13:32:54;;;;;;;1.80;1.70;;;14.20;99.90;;;;;;4945525;29;20488;-73
2023/10/22 13:35:21;;;;;;;1.30;1.30;;;14.10;99.90;;;;;;4946396;29;20461;-73
2023/10/22 13:37:47;;;;;;;1.50;1.40;;;14.10;99.90;;;;;;4948598;29;20486;-72
2023/10/22 13:40:14;;;;;;;1.70;1.60;;;14.10;99.90;;;;;;4948183;29;20463;-73
2023/10/22 13:42:41;;;;;;;1.70;1.60;;;14.30;99.90;;;;;;4948920;29;20488;-73
2023/10/22 13:45:09;;;;;;;2.10;1.63;;;14.30;99.90;;;;;;4948694;28;20465;-72
2023/10/22 13:47:35;;;;;;;1.20;1.20;;;14.40;99.90;;;;;;4956053;29;20468;-73
2023/10/22 13:50:04;;;;;;;1.10;1.10;;;14.40;99.90;;;;;;4948407;28;20834;-73
2023/10/22 13:52:31;;;;;;;1.40;1.37;;;14.40;99.90;;;;;;4945448;29;20487;-72
2023/10/22 13:54:57;;;;;;;1.70;1.57;;;14.50;99.90;;;;;;4944811;29;20466;-72
2023/10/22 13:57:26;;;;;;;1.37;1.37;;;14.50;99.90;;;;;;4946189;29;20847;-73
2023/10/22 13:59:53;;;;;;;1.53;1.53;;;14.50;99.90;;;;;;4950662;28;20469;-73
2023/10/22 14:02:20;;;;;;;1.30;1.20;;;14.50;99.90;;;;;;4945439;29;20492;-72
2023/10/22 14:04:47;;;;;;;1.50;1.50;;;14.50;99.90;;;;;;4947890;29;20471;-72
2023/10/22 14:07:16;;;;;;;1.20;1.20;;;14.50;99.90;;;;;;4949763;28;20468;-73
2023/10/22 14:09:42;;;;;;;0.97;0.97;;;14.40;99.90;;;;;;4948270;28;20472;-73
2023/10/22 14:12:10;;;;;;;1.00;0.90;;;14.30;99.90;;;;;;4956161;29;20496;-73
2023/10/22 14:14:38;;;;;;;1.03;1.03;;;14.30;99.90;;;;;;4937266;29;20567;-73
2023/10/22 14:17:04;;;;;;;0.80;0.80;;;14.20;99.90;;;;;;4944593;29;20525;-71
2023/10/22 14:19:32;;;;;;;1.00;1.00;;;14.20;99.90;;;;;;4947357;29;20982;-73
2023/10/22 14:21:58;;;;;;;0.93;0.93;;;14.20;99.90;;;;;;4949512;28;20536;-73
2023/10/22 14:24:26;;;;;;;0.97;0.97;;;14.20;99.90;;;;;;4945878;29;20491;-73
2023/10/22 14:26:53;;;;;;;0.90;0.90;;;14.10;99.90;;;;;;4939417;29;20470;-70
2023/10/22 14:29:20;;;;;;;0.80;0.80;;;14.10;99.90;;;;;;4941104;29;20470;-71
2023/10/22 14:31:47;;;;;;;0.70;0.70;;;14.10;99.90;;;;;;4940998;28;20496;-71
2023/10/22 14:34:17;;;;;;;0.73;0.73;;;14.10;99.90;;;;;;4941463;28;20976;-70
2023/10/22 14:36:44;;;;;;;1.60;1.50;;;14.10;99.90;;;;;;4940618;29;20469;-71
2023/10/22 14:39:11;;;;;;;1.20;1.10;;;14.10;99.90;;;;;;4936229;28;20477;-70
2023/10/22 14:41:39;;;;;;;1.10;1.10;;;14.10;99.90;;;;;;4934232;29;20492;-70
2023/10/22 14:44:05;;;;;;;1.10;1.10;;;14.10;99.90;;;;;;4947915;28;20458;-71
2023/10/22 14:46:32;;;;;;;1.00;1.00;;;14.10;99.90;;;;;;4948478;29;20472;-71
2023/10/22 14:48:59;;;;;;;1.10;1.10;;;14.10;99.90;;;;;;4946063;28;20460;-71
2023/10/22 14:51:26;;;;;;;1.17;1.17;;;14.00;99.90;;;;;;4942111;28;20501;-72
2023/10/22 14:53:53;;;;;;;1.40;1.30;;;14.00;99.90;;;;;;4951722;28;20867;-69
2023/10/22 14:56:19;;;;;;;1.70;1.60;;;14.00;99.90;;;;;;4944947;28;20480;-71
2023/10/22 14:58:47;;;;;;;1.30;1.30;;;14.00;99.90;;;;;;4944123;28;20468;-71
2023/10/22 15:01:14;;;;;;;2.23;1.57;;;14.00;99.90;;;;;;4942463;28;20516;-70
2023/10/22 15:03:41;;;;;;;1.10;1.10;;;14.00;99.90;;;;;;4951886;28;20465;-70
2023/10/22 15:06:08;;;;;;;1.23;1.20;;;13.90;99.90;;;;;;4945404;28;20968;-70
2023/10/22 15:08:34;;;;;;;1.20;1.20;;;13.80;99.90;;;;;;4954061;29;20499;-69
2023/10/22 15:11:03;;;;;;;1.80;1.80;;;13.80;99.90;;;;;;4942361;28;20529;-69
2023/10/22 15:13:30;;;;;;;1.47;1.47;;;13.70;99.90;;;;;;4937660;29;20546;-69
2023/10/22 15:15:58;;;;;;;1.83;1.77;;;13.60;99.90;;;;;;4943547;28;20469;-68
2023/10/22 15:18:25;;;;;;;1.60;1.40;;;13.50;99.90;;;;;;4952655;29;20557;-68
2023/10/22 15:20:52;;;;;;;1.13;1.13;;;13.40;99.90;;;;;;4943871;28;20491;-69
2023/10/22 15:23:19;;;;;;;1.83;1.80;;;13.50;99.90;;;;;;4954305;28;20467;-70
2023/10/22 15:25:47;;;;;;;1.80;1.70;;;13.50;99.90;;;;;;4953465;28;20469;-69
2023/10/22 15:28:14;;;;;;;1.90;1.80;;;13.40;99.90;;;;;;4937566;28;20473;-69
2023/10/22 15:30:42;;;;;;;6.50;2.23;;;13.40;99.90;;;;;;4949654;28;20579;-68
2023/10/22 15:33:10;;;;;;;1.87;1.77;;;13.40;99.90;;;;;;4943945;28;20510;-69
2023/10/22 15:35:37;;;;;;;2.33;2.23;;;13.30;99.90;;;;;;4951326;29;20472;-72
2023/10/22 15:38:05;;;;;;;1.80;1.80;;;13.30;99.90;;;;;;4945525;28;20911;-70
2023/10/22 15:40:33;;;;;;;1.97;1.87;;;13.30;99.90;;;;;;4944167;29;21207;-70
2023/10/22 15:43:00;;;;;;;2.07;2.07;;;13.20;99.90;;;;;;4937433;29;20469;-70
2023/10/22 15:45:29;;;;;;;1.33;1.33;;;13.20;99.90;;;;;;4942104;29;20479;-70
2023/10/22 15:47:58;;;;;;;1.40;1.40;;;13.20;99.90;;;;;;4943338;29;20468;-73
2023/10/22 15:50:27;;;;;;;1.87;1.70;;;13.20;99.90;;;;;;4948323;29;20833;-73
2023/10/22 15:52:55;;;;;;;1.77;1.73;;;13.20;99.90;;;;;;4947075;28;20540;-73
2023/10/22 15:55:22;;;;;;;1.77;1.77;;;13.10;99.90;;;;;;4946941;29;20537;-72
2023/10/22 15:57:52;;;;;;;1.60;1.60;;;13.10;99.90;;;;;;4946645;28;20462;-73
2023/10/22 16:00:21;;;;;;;2.03;1.93;;;13.00;99.90;;;;;;4941658;29;20476;-74
2023/10/22 16:02:48;;;;;;;2.03;1.97;;;13.00;99.90;;;;;;4948178;28;20474;-73
2023/10/22 16:05:15;;;;;;;2.20;2.10;;;12.90;99.90;;;;;;4945539;29;20507;-74
2023/10/22 16:07:43;;;;;;;3.43;2.70;;;12.90;99.90;;;;;;4945294;28;20481;-74
2023/10/22 16:10:10;;;;;;;2.70;2.60;;;12.90;99.90;;;;;;4942365;29;20483;-74
2023/10/22 16:12:37;;;;;;;4.53;2.97;;;12.80;99.90;;;;;;4946133;29;20521;-71
2023/10/22 16:15:06;;;;;;;2.13;2.03;;;12.70;99.90;;;;;;4938647;29;20474;-70
2023/10/22 16:17:34;;;;;;;2.60;2.40;;;12.80;99.90;;;;;;4950324;29;20479;-71
2023/10/22 16:20:01;;;;;;;2.90;2.80;;;12.70;99.90;;;;;;4933881;29;20483;-71
2023/10/22 16:22:28;;;;;;;2.80;2.57;;;12.70;99.90;;;;;;4948201;29;20483;-72
2023/10/22 16:24:56;;;;;;;5.00;3.20;;;12.60;99.90;;;;;;4940159;29;20471;-70
2023/10/22 16:27:22;;;;;;;2.83;2.83;;;12.60;99.90;;;;;;4949011;28;20474;-71
2023/10/22 16:29:52;;;;;;;2.87;2.67;;;12.60;99.90;;;;;;4940182;28;20575;-73
2023/10/22 16:32:19;;;;;;;7.83;3.80;;;12.50;99.90;;;;;;4943470;29;20571;-72
2023/10/22 16:34:46;;;;;;;4.80;4.60;;;12.50;99.90;;;;;;4936164;28;20477;-73
2023/10/22 16:37:12;;;;;;;4.97;4.60;;;12.50;99.90;;;;;;4938731;29;20483;-70
2023/10/22 16:39:39;;;;;;;5.13;4.70;;;12.50;99.90;;;;;;4943178;28;20477;-73
2023/10/22 16:42:08;;;;;;;8.03;5.80;;;12.40;99.90;;;;;;4945933;29;20483;-72
2023/10/22 16:44:35;;;;;;;6.50;5.97;;;12.40;99.90;;;;;;4943259;29;20483;-73
2023/10/22 16:47:02;;;;;;;5.60;5.10;;;12.40;99.90;;;;;;4940397;28;20509;-71
2023/10/22 16:49:30;;;;;;;7.90;5.83;;;12.30;99.90;;;;;;4941261;29;20575;-71
2023/10/22 16:51:57;;;;;;;6.27;5.40;;;12.40;99.90;;;;;;4936972;28;20503;-71
2023/10/22 16:54:24;;;;;;;5.30;4.90;;;12.30;99.90;;;;;;4936392;29;20472;-72